sensor_id;sensor_type;location;lat;lon;timestamp;P1;durP1;ratioP1;P2;durP2;ratioP2
20988;SDS011;10653;47.052;15.410;2024-02-16T00:00:29;11.80;;;8.50;;
20988;SDS011;10653;47.052;15.410;2024-02-16T00:02:56;12.35;;;9.25;;
20988;SDS011;10653;47.052;15.410;2024-02-16T00:05:22;16.37;;;10.70;;
20988;SDS011;10653;47.052;15.410;2024-02-16T00:07:48;10.80;;;9.15;;
20988;SDS011;10653;47.052;15.410;2024-02-16T00:10:14;10.97;;;8.30;;
20988;SDS011;10653;47.052;15.410;2024-02-16T00:12:43;8.57;;;7.68;;
20988;SDS011;10653;47.052;15.410;2024-02-16T00:15:09;10.25;;;8.52;;
20988;SDS011;10653;47.052;15.410;2024-02-16T00:17:35;10.60;;;8.77;;
20988;SDS011;10653;47.052;15.410;2024-02-16T00:20:02;10.95;;;8.55;;
20988;SDS011;10653;47.052;15.410;2024-02-16T00:22:28;9.27;;;8.38;;
20988;SDS011;10653;47.052;15.410;2024-02-16T00:24:55;10.45;;;8.05;;
20988;SDS011;10653;47.052;15.410;2024-02-16T00:27:21;8.50;;;7.68;;
20988;SDS011;10653;47.052;15.410;2024-02-16T00:29:47;9.52;;;7.95;;
20988;SDS011;10653;47.052;15.410;2024-02-16T00:32:13;8.60;;;7.43;;
20988;SDS011;10653;47.052;15.410;2024-02-16T00:34:40;11.65;;;8.75;;
20988;SDS011;10653;47.052;15.410;2024-02-16T00:37:06;11.35;;;7.85;;
20988;SDS011;10653;47.052;15.410;2024-02-16T00:39:37;9.45;;;7.95;;
20988;SDS011;10653;47.052;15.410;2024-02-16T00:42:06;9.32;;;8.35;;
20988;SDS011;10653;47.052;15.410;2024-02-16T00:44:32;10.98;;;7.93;;
20988;SDS011;10653;47.052;15.410;2024-02-16T00:46:58;9.50;;;7.90;;
20988;SDS011;10653;47.052;15.410;2024-02-16T00:49:24;8.80;;;8.00;;
20988;SDS011;10653;47.052;15.410;2024-02-16T00:51:50;10.87;;;8.83;;
20988;SDS011;10653;47.052;15.410;2024-02-16T00:54:16;9.23;;;8.30;;
20988;SDS011;10653;47.052;15.410;2024-02-16T00:56:43;12.80;;;7.75;;
20988;SDS011;10653;47.052;15.410;2024-02-16T00:59:09;8.85;;;7.40;;
20988;SDS011;10653;47.052;15.410;2024-02-16T01:01:35;10.95;;;8.25;;
20988;SDS011;10653;47.052;15.410;2024-02-16T01:04:01;10.32;;;7.95;;
20988;SDS011;10653;47.052;15.410;2024-02-16T01:06:28;9.13;;;8.13;;
20988;SDS011;10653;47.052;15.410;2024-02-16T01:08:54;11.55;;;7.40;;
20988;SDS011;10653;47.052;15.410;2024-02-16T01:11:21;9.82;;;8.82;;
20988;SDS011;10653;47.052;15.410;2024-02-16T01:13:47;9.13;;;8.20;;
20988;SDS011;10653;47.052;15.410;2024-02-16T01:16:13;10.45;;;7.78;;
20988;SDS011;10653;47.052;15.410;2024-02-16T01:18:39;7.57;;;6.78;;
20988;SDS011;10653;47.052;15.410;2024-02-16T01:21:05;7.28;;;6.57;;
20988;SDS011;10653;47.052;15.410;2024-02-16T01:23:31;8.35;;;7.55;;
20988;SDS011;10653;47.052;15.410;2024-02-16T01:25:57;8.27;;;7.43;;
20988;SDS011;10653;47.052;15.410;2024-02-16T01:28:24;8.18;;;7.32;;
20988;SDS011;10653;47.052;15.410;2024-02-16T01:30:50;11.37;;;7.50;;
20988;SDS011;10653;47.052;15.410;2024-02-16T01:33:16;7.50;;;6.72;;
20988;SDS011;10653;47.052;15.410;2024-02-16T01:35:42;7.90;;;6.82;;
20988;SDS011;10653;47.052;15.410;2024-02-16T01:38:08;8.50;;;7.18;;
20988;SDS011;10653;47.052;15.410;2024-02-16T01:40:34;7.55;;;6.78;;
20988;SDS011;10653;47.052;15.410;2024-02-16T01:43:00;7.82;;;6.82;;
20988;SDS011;10653;47.052;15.410;2024-02-16T01:45:26;8.67;;;7.70;;
20988;SDS011;10653;47.052;15.410;2024-02-16T01:47:52;8.30;;;7.53;;
20988;SDS011;10653;47.052;15.410;2024-02-16T01:50:19;7.70;;;6.68;;
20988;SDS011;10653;47.052;15.410;2024-02-16T01:52:46;9.50;;;6.55;;
20988;SDS011;10653;47.052;15.410;2024-02-16T01:55:13;7.85;;;6.55;;
20988;SDS011;10653;47.052;15.410;2024-02-16T01:57:39;8.60;;;7.80;;
20988;SDS011;10653;47.052;15.410;2024-02-16T02:00:06;9.70;;;8.73;;
20988;SDS011;10653;47.052;15.410;2024-02-16T02:02:33;7.68;;;6.85;;
20988;SDS011;10653;47.052;15.410;2024-02-16T02:04:59;7.72;;;5.90;;
20988;SDS011;10653;47.052;15.410;2024-02-16T02:07:26;7.38;;;6.57;;
20988;SDS011;10653;47.052;15.410;2024-02-16T02:09:52;8.40;;;6.60;;
20988;SDS011;10653;47.052;15.410;2024-02-16T02:12:18;6.68;;;6.07;;
20988;SDS011;10653;47.052;15.410;2024-02-16T02:14:44;9.98;;;6.18;;
20988;SDS011;10653;47.052;15.410;2024-02-16T02:17:11;7.13;;;6.43;;
20988;SDS011;10653;47.052;15.410;2024-02-16T02:19:37;8.75;;;7.10;;
20988;SDS011;10653;47.052;15.410;2024-02-16T02:22:03;9.38;;;6.78;;
20988;SDS011;10653;47.052;15.410;2024-02-16T02:24:30;6.50;;;5.90;;
20988;SDS011;10653;47.052;15.410;2024-02-16T02:26:56;10.27;;;6.78;;
20988;SDS011;10653;47.052;15.410;2024-02-16T02:29:22;6.97;;;6.28;;
20988;SDS011;10653;47.052;15.410;2024-02-16T02:31:48;7.72;;;6.90;;
20988;SDS011;10653;47.052;15.410;2024-02-16T02:34:14;8.43;;;7.57;;
20988;SDS011;10653;47.052;15.410;2024-02-16T02:36:40;7.88;;;6.40;;
20988;SDS011;10653;47.052;15.410;2024-02-16T02:39:06;7.50;;;6.23;;
20988;SDS011;10653;47.052;15.410;2024-02-16T02:41:32;7.10;;;6.40;;
20988;SDS011;10653;47.052;15.410;2024-02-16T02:43:59;7.72;;;6.38;;
20988;SDS011;10653;47.052;15.410;2024-02-16T02:46:25;7.35;;;6.40;;
20988;SDS011;10653;47.052;15.410;2024-02-16T02:48:52;8.65;;;5.90;;
20988;SDS011;10653;47.052;15.410;2024-02-16T02:51:18;6.45;;;5.85;;
20988;SDS011;10653;47.052;15.410;2024-02-16T02:53:44;7.57;;;6.00;;
20988;SDS011;10653;47.052;15.410;2024-02-16T02:56:11;8.40;;;6.20;;
20988;SDS011;10653;47.052;15.410;2024-02-16T02:58:38;6.60;;;5.90;;
20988;SDS011;10653;47.052;15.410;2024-02-16T03:01:04;8.02;;;6.50;;
20988;SDS011;10653;47.052;15.410;2024-02-16T03:03:33;7.03;;;6.32;;
20988;SDS011;10653;47.052;15.410;2024-02-16T03:05:59;8.55;;;7.65;;
20988;SDS011;10653;47.052;15.410;2024-02-16T03:08:25;7.07;;;5.85;;
20988;SDS011;10653;47.052;15.410;2024-02-16T03:10:51;11.35;;;6.13;;
20988;SDS011;10653;47.052;15.410;2024-02-16T03:13:17;7.83;;;6.20;;
20988;SDS011;10653;47.052;15.410;2024-02-16T03:15:44;9.63;;;7.05;;
20988;SDS011;10653;47.052;15.410;2024-02-16T03:18:10;8.02;;;6.70;;
20988;SDS011;10653;47.052;15.410;2024-02-16T03:20:36;7.00;;;5.80;;
20988;SDS011;10653;47.052;15.410;2024-02-16T03:23:02;6.57;;;5.97;;
20988;SDS011;10653;47.052;15.410;2024-02-16T03:25:28;8.82;;;7.00;;
20988;SDS011;10653;47.052;15.410;2024-02-16T03:27:54;8.90;;;7.45;;
20988;SDS011;10653;47.052;15.410;2024-02-16T03:30:21;7.85;;;7.05;;
20988;SDS011;10653;47.052;15.410;2024-02-16T03:32:50;8.75;;;7.45;;
20988;SDS011;10653;47.052;15.410;2024-02-16T03:35:17;8.63;;;7.75;;
20988;SDS011;10653;47.052;15.410;2024-02-16T03:37:43;10.85;;;8.23;;
20988;SDS011;10653;47.052;15.410;2024-02-16T03:40:10;8.90;;;7.72;;
20988;SDS011;10653;47.052;15.410;2024-02-16T03:42:37;8.23;;;7.43;;
20988;SDS011;10653;47.052;15.410;2024-02-16T03:45:04;10.38;;;8.00;;
20988;SDS011;10653;47.052;15.410;2024-02-16T03:47:31;6.85;;;5.90;;
20988;SDS011;10653;47.052;15.410;2024-02-16T03:49:57;7.57;;;6.00;;
20988;SDS011;10653;47.052;15.410;2024-02-16T03:52:23;6.57;;;6.07;;
20988;SDS011;10653;47.052;15.410;2024-02-16T03:54:49;7.43;;;6.53;;
20988;SDS011;10653;47.052;15.410;2024-02-16T03:57:16;10.15;;;6.90;;
20988;SDS011;10653;47.052;15.410;2024-02-16T03:59:43;6.93;;;6.10;;
20988;SDS011;10653;47.052;15.410;2024-02-16T04:02:09;7.05;;;6.35;;
20988;SDS011;10653;47.052;15.410;2024-02-16T04:04:35;7.90;;;6.05;;
20988;SDS011;10653;47.052;15.410;2024-02-16T04:07:01;7.05;;;6.32;;
20988;SDS011;10653;47.052;15.410;2024-02-16T04:09:27;7.80;;;6.03;;
20988;SDS011;10653;47.052;15.410;2024-02-16T04:11:53;6.37;;;5.77;;
20988;SDS011;10653;47.052;15.410;2024-02-16T04:14:19;9.07;;;6.35;;
20988;SDS011;10653;47.052;15.410;2024-02-16T04:16:45;5.78;;;4.95;;
20988;SDS011;10653;47.052;15.410;2024-02-16T04:19:11;8.65;;;5.70;;
20988;SDS011;10653;47.052;15.410;2024-02-16T04:21:37;10.97;;;6.63;;
20988;SDS011;10653;47.052;15.410;2024-02-16T04:24:03;6.00;;;5.50;;
20988;SDS011;10653;47.052;15.410;2024-02-16T04:26:29;6.40;;;5.30;;
20988;SDS011;10653;47.052;15.410;2024-02-16T04:28:55;6.10;;;5.43;;
20988;SDS011;10653;47.052;15.410;2024-02-16T04:31:21;10.90;;;5.80;;
20988;SDS011;10653;47.052;15.410;2024-02-16T04:33:47;7.63;;;6.83;;
20988;SDS011;10653;47.052;15.410;2024-02-16T04:36:13;7.90;;;6.90;;
20988;SDS011;10653;47.052;15.410;2024-02-16T04:38:40;7.60;;;6.53;;
20988;SDS011;10653;47.052;15.410;2024-02-16T04:41:06;8.27;;;6.63;;
20988;SDS011;10653;47.052;15.410;2024-02-16T04:43:33;7.63;;;6.82;;
20988;SDS011;10653;47.052;15.410;2024-02-16T04:46:00;6.40;;;5.72;;
20988;SDS011;10653;47.052;15.410;2024-02-16T04:48:26;8.50;;;7.22;;
20988;SDS011;10653;47.052;15.410;2024-02-16T04:50:53;8.20;;;7.18;;
20988;SDS011;10653;47.052;15.410;2024-02-16T04:53:19;7.07;;;6.38;;
20988;SDS011;10653;47.052;15.410;2024-02-16T04:55:45;10.90;;;7.20;;
20988;SDS011;10653;47.052;15.410;2024-02-16T04:58:11;7.13;;;6.07;;
20988;SDS011;10653;47.052;15.410;2024-02-16T05:00:37;7.87;;;5.80;;
20988;SDS011;10653;47.052;15.410;2024-02-16T05:03:03;6.50;;;5.60;;
20988;SDS011;10653;47.052;15.410;2024-02-16T05:05:29;7.10;;;6.15;;
20988;SDS011;10653;47.052;15.410;2024-02-16T05:07:55;8.25;;;7.03;;
20988;SDS011;10653;47.052;15.410;2024-02-16T05:10:22;9.95;;;7.35;;
20988;SDS011;10653;47.052;15.410;2024-02-16T05:12:48;10.52;;;6.88;;
20988;SDS011;10653;47.052;15.410;2024-02-16T05:15:14;9.27;;;6.95;;
20988;SDS011;10653;47.052;15.410;2024-02-16T05:17:40;7.75;;;6.93;;
20988;SDS011;10653;47.052;15.410;2024-02-16T05:20:10;7.45;;;6.65;;
20988;SDS011;10653;47.052;15.410;2024-02-16T05:22:40;9.20;;;7.20;;
20988;SDS011;10653;47.052;15.410;2024-02-16T05:25:08;8.13;;;7.03;;
20988;SDS011;10653;47.052;15.410;2024-02-16T05:27:34;9.77;;;7.70;;
20988;SDS011;10653;47.052;15.410;2024-02-16T05:30:00;7.20;;;6.50;;
20988;SDS011;10653;47.052;15.410;2024-02-16T05:32:26;6.40;;;5.80;;
20988;SDS011;10653;47.052;15.410;2024-02-16T05:34:52;7.50;;;6.73;;
20988;SDS011;10653;47.052;15.410;2024-02-16T05:37:18;38.17;;;27.60;;
20988;SDS011;10653;47.052;15.410;2024-02-16T05:39:45;52.35;;;35.08;;
20988;SDS011;10653;47.052;15.410;2024-02-16T05:42:32;22.80;;;17.67;;
20988;SDS011;10653;47.052;15.410;2024-02-16T05:44:58;18.80;;;14.57;;
20988;SDS011;10653;47.052;15.410;2024-02-16T05:47:24;17.02;;;14.00;;
20988;SDS011;10653;47.052;15.410;2024-02-16T05:49:51;14.30;;;11.82;;
20988;SDS011;10653;47.052;15.410;2024-02-16T05:52:17;9.80;;;8.80;;
20988;SDS011;10653;47.052;15.410;2024-02-16T05:54:46;13.90;;;11.50;;
20988;SDS011;10653;47.052;15.410;2024-02-16T05:57:14;16.67;;;11.85;;
20988;SDS011;10653;47.052;15.410;2024-02-16T05:59:40;13.17;;;10.20;;
20988;SDS011;10653;47.052;15.410;2024-02-16T06:02:06;12.00;;;9.73;;
20988;SDS011;10653;47.052;15.410;2024-02-16T06:04:33;12.68;;;9.88;;
20988;SDS011;10653;47.052;15.410;2024-02-16T06:07:00;12.57;;;9.43;;
20988;SDS011;10653;47.052;15.410;2024-02-16T06:09:26;10.63;;;9.50;;
20988;SDS011;10653;47.052;15.410;2024-02-16T06:11:59;11.27;;;8.73;;
20988;SDS011;10653;47.052;15.410;2024-02-16T06:14:26;13.55;;;8.90;;
20988;SDS011;10653;47.052;15.410;2024-02-16T06:16:51;13.83;;;10.87;;
20988;SDS011;10653;47.052;15.410;2024-02-16T06:19:17;11.53;;;10.27;;
20988;SDS011;10653;47.052;15.410;2024-02-16T06:21:43;14.50;;;11.10;;
20988;SDS011;10653;47.052;15.410;2024-02-16T06:24:09;15.70;;;14.10;;
20988;SDS011;10653;47.052;15.410;2024-02-16T06:26:35;14.07;;;12.57;;
20988;SDS011;10653;47.052;15.410;2024-02-16T06:29:01;13.87;;;11.60;;
20988;SDS011;10653;47.052;15.410;2024-02-16T06:31:27;17.83;;;12.40;;
20988;SDS011;10653;47.052;15.410;2024-02-16T06:33:53;15.70;;;12.03;;
20988;SDS011;10653;47.052;15.410;2024-02-16T06:36:20;16.58;;;12.05;;
20988;SDS011;10653;47.052;15.410;2024-02-16T06:38:46;15.60;;;12.20;;
20988;SDS011;10653;47.052;15.410;2024-02-16T06:41:12;15.10;;;11.77;;
20988;SDS011;10653;47.052;15.410;2024-02-16T06:43:38;14.32;;;11.10;;
20988;SDS011;10653;47.052;15.410;2024-02-16T06:46:04;11.60;;;10.33;;
20988;SDS011;10653;47.052;15.410;2024-02-16T06:48:30;12.00;;;9.45;;
20988;SDS011;10653;47.052;15.410;2024-02-16T06:50:56;11.00;;;9.53;;
20988;SDS011;10653;47.052;15.410;2024-02-16T06:53:22;11.00;;;9.17;;
20988;SDS011;10653;47.052;15.410;2024-02-16T06:55:48;12.93;;;11.52;;
20988;SDS011;10653;47.052;15.410;2024-02-16T06:58:15;19.23;;;10.32;;
20988;SDS011;10653;47.052;15.410;2024-02-16T07:00:41;12.05;;;9.32;;
20988;SDS011;10653;47.052;15.410;2024-02-16T07:03:07;11.70;;;10.50;;
20988;SDS011;10653;47.052;15.410;2024-02-16T07:05:34;12.18;;;10.27;;
20988;SDS011;10653;47.052;15.410;2024-02-16T07:08:00;14.95;;;11.35;;
20988;SDS011;10653;47.052;15.410;2024-02-16T07:10:26;17.33;;;12.88;;
20988;SDS011;10653;47.052;15.410;2024-02-16T07:12:52;17.13;;;13.90;;
20988;SDS011;10653;47.052;15.410;2024-02-16T07:15:18;16.00;;;12.77;;
20988;SDS011;10653;47.052;15.410;2024-02-16T07:17:44;16.90;;;12.23;;
20988;SDS011;10653;47.052;15.410;2024-02-16T07:20:10;16.13;;;12.00;;
20988;SDS011;10653;47.052;15.410;2024-02-16T07:22:40;14.45;;;11.60;;
20988;SDS011;10653;47.052;15.410;2024-02-16T07:25:07;17.48;;;10.80;;
20988;SDS011;10653;47.052;15.410;2024-02-16T07:27:33;15.05;;;10.60;;
20988;SDS011;10653;47.052;15.410;2024-02-16T07:29:59;14.32;;;10.52;;
20988;SDS011;10653;47.052;15.410;2024-02-16T07:32:25;11.73;;;9.40;;
20988;SDS011;10653;47.052;15.410;2024-02-16T07:34:51;16.30;;;10.10;;
20988;SDS011;10653;47.052;15.410;2024-02-16T07:37:17;18.33;;;10.20;;
20988;SDS011;10653;47.052;15.410;2024-02-16T07:39:43;13.40;;;9.00;;
20988;SDS011;10653;47.052;15.410;2024-02-16T07:42:09;13.23;;;9.50;;
20988;SDS011;10653;47.052;15.410;2024-02-16T07:44:37;13.07;;;9.50;;
20988;SDS011;10653;47.052;15.410;2024-02-16T07:47:04;12.82;;;9.85;;
20988;SDS011;10653;47.052;15.410;2024-02-16T07:49:30;11.07;;;9.27;;
20988;SDS011;10653;47.052;15.410;2024-02-16T07:51:56;14.57;;;10.45;;
20988;SDS011;10653;47.052;15.410;2024-02-16T07:54:25;12.93;;;10.70;;
20988;SDS011;10653;47.052;15.410;2024-02-16T07:56:51;14.88;;;10.52;;
20988;SDS011;10653;47.052;15.410;2024-02-16T07:59:17;19.70;;;9.97;;
20988;SDS011;10653;47.052;15.410;2024-02-16T08:01:44;14.35;;;9.93;;
20988;SDS011;10653;47.052;15.410;2024-02-16T08:04:10;14.82;;;10.05;;
20988;SDS011;10653;47.052;15.410;2024-02-16T08:06:36;12.80;;;11.35;;
20988;SDS011;10653;47.052;15.410;2024-02-16T08:09:02;15.68;;;9.98;;
20988;SDS011;10653;47.052;15.410;2024-02-16T08:11:29;11.48;;;9.05;;
20988;SDS011;10653;47.052;15.410;2024-02-16T08:13:55;14.90;;;10.07;;
20988;SDS011;10653;47.052;15.410;2024-02-16T08:16:25;10.82;;;9.32;;
20988;SDS011;10653;47.052;15.410;2024-02-16T08:18:51;11.83;;;9.47;;
20988;SDS011;10653;47.052;15.410;2024-02-16T08:21:17;11.40;;;8.90;;
20988;SDS011;10653;47.052;15.410;2024-02-16T08:23:43;11.63;;;9.47;;
20988;SDS011;10653;47.052;15.410;2024-02-16T08:26:09;12.53;;;8.97;;
20988;SDS011;10653;47.052;15.410;2024-02-16T08:28:35;16.50;;;10.37;;
20988;SDS011;10653;47.052;15.410;2024-02-16T08:31:01;10.90;;;8.90;;
20988;SDS011;10653;47.052;15.410;2024-02-16T08:33:27;13.80;;;8.87;;
20988;SDS011;10653;47.052;15.410;2024-02-16T08:35:53;11.33;;;9.40;;
20988;SDS011;10653;47.052;15.410;2024-02-16T08:38:19;11.33;;;7.73;;
20988;SDS011;10653;47.052;15.410;2024-02-16T08:40:45;9.37;;;8.07;;
20988;SDS011;10653;47.052;15.410;2024-02-16T08:43:12;11.40;;;8.00;;
20988;SDS011;10653;47.052;15.410;2024-02-16T08:45:38;12.37;;;8.13;;
20988;SDS011;10653;47.052;15.410;2024-02-16T08:48:06;9.97;;;8.97;;
20988;SDS011;10653;47.052;15.410;2024-02-16T08:50:32;9.33;;;8.37;;
20988;SDS011;10653;47.052;15.410;2024-02-16T08:52:58;11.00;;;8.87;;
20988;SDS011;10653;47.052;15.410;2024-02-16T08:55:24;12.20;;;7.60;;
20988;SDS011;10653;47.052;15.410;2024-02-16T08:57:50;11.87;;;8.30;;
20988;SDS011;10653;47.052;15.410;2024-02-16T09:00:16;9.17;;;7.40;;
20988;SDS011;10653;47.052;15.410;2024-02-16T09:02:42;9.10;;;7.17;;
20988;SDS011;10653;47.052;15.410;2024-02-16T09:05:08;9.50;;;7.33;;
20988;SDS011;10653;47.052;15.410;2024-02-16T09:07:36;12.07;;;8.10;;
20988;SDS011;10653;47.052;15.410;2024-02-16T09:10:02;13.97;;;7.60;;
20988;SDS011;10653;47.052;15.410;2024-02-16T09:12:29;9.77;;;7.57;;
20988;SDS011;10653;47.052;15.410;2024-02-16T09:14:55;8.00;;;7.20;;
20988;SDS011;10653;47.052;15.410;2024-02-16T09:17:21;9.83;;;8.00;;
20988;SDS011;10653;47.052;15.410;2024-02-16T09:19:47;10.70;;;7.30;;
20988;SDS011;10653;47.052;15.410;2024-02-16T09:22:13;11.43;;;8.33;;
20988;SDS011;10653;47.052;15.410;2024-02-16T09:24:39;9.70;;;7.33;;
20988;SDS011;10653;47.052;15.410;2024-02-16T09:27:05;10.80;;;8.60;;
20988;SDS011;10653;47.052;15.410;2024-02-16T09:29:34;10.53;;;9.40;;
20988;SDS011;10653;47.052;15.410;2024-02-16T09:32:00;10.50;;;9.10;;
20988;SDS011;10653;47.052;15.410;2024-02-16T09:34:26;10.90;;;9.40;;
20988;SDS011;10653;47.052;15.410;2024-02-16T09:36:52;11.40;;;10.30;;
20988;SDS011;10653;47.052;15.410;2024-02-16T09:39:18;14.07;;;9.90;;
20988;SDS011;10653;47.052;15.410;2024-02-16T09:41:45;11.97;;;9.10;;
20988;SDS011;10653;47.052;15.410;2024-02-16T09:44:14;10.67;;;9.63;;
20988;SDS011;10653;47.052;15.410;2024-02-16T09:46:40;10.77;;;8.87;;
20988;SDS011;10653;47.052;15.410;2024-02-16T09:49:07;13.03;;;9.30;;
20988;SDS011;10653;47.052;15.410;2024-02-16T09:51:36;8.50;;;7.07;;
20988;SDS011;10653;47.052;15.410;2024-02-16T09:54:02;10.97;;;9.60;;
20988;SDS011;10653;47.052;15.410;2024-02-16T09:56:28;13.87;;;10.20;;
20988;SDS011;10653;47.052;15.410;2024-02-16T09:58:55;12.03;;;8.83;;
20988;SDS011;10653;47.052;15.410;2024-02-16T10:01:24;11.47;;;8.17;;
20988;SDS011;10653;47.052;15.410;2024-02-16T10:03:50;11.50;;;8.67;;
20988;SDS011;10653;47.052;15.410;2024-02-16T10:06:16;14.97;;;8.83;;
20988;SDS011;10653;47.052;15.410;2024-02-16T10:08:53;11.17;;;9.00;;
20988;SDS011;10653;47.052;15.410;2024-02-16T10:11:20;12.23;;;8.33;;
20988;SDS011;10653;47.052;15.410;2024-02-16T10:13:59;12.07;;;7.93;;
20988;SDS011;10653;47.052;15.410;2024-02-16T10:16:26;9.93;;;8.57;;
20988;SDS011;10653;47.052;15.410;2024-02-16T10:18:56;12.93;;;11.53;;
20988;SDS011;10653;47.052;15.410;2024-02-16T10:21:29;14.00;;;11.60;;
20988;SDS011;10653;47.052;15.410;2024-02-16T10:23:56;11.27;;;10.07;;
20988;SDS011;10653;47.052;15.410;2024-02-16T10:26:22;10.60;;;8.17;;
20988;SDS011;10653;47.052;15.410;2024-02-16T10:28:49;13.70;;;9.63;;
20988;SDS011;10653;47.052;15.410;2024-02-16T10:31:16;10.00;;;8.40;;
20988;SDS011;10653;47.052;15.410;2024-02-16T10:33:42;9.80;;;8.90;;
20988;SDS011;10653;47.052;15.410;2024-02-16T10:36:08;11.83;;;8.97;;
20988;SDS011;10653;47.052;15.410;2024-02-16T10:38:35;10.53;;;9.23;;
20988;SDS011;10653;47.052;15.410;2024-02-16T10:41:03;16.27;;;10.37;;
20988;SDS011;10653;47.052;15.410;2024-02-16T10:43:30;11.87;;;10.67;;
20988;SDS011;10653;47.052;15.410;2024-02-16T10:45:56;12.03;;;9.50;;
20988;SDS011;10653;47.052;15.410;2024-02-16T10:48:22;11.37;;;9.43;;
20988;SDS011;10653;47.052;15.410;2024-02-16T10:50:48;11.40;;;10.37;;
20988;SDS011;10653;47.052;15.410;2024-02-16T10:53:26;12.67;;;10.03;;
20988;SDS011;10653;47.052;15.410;2024-02-16T10:55:58;13.90;;;9.90;;
20988;SDS011;10653;47.052;15.410;2024-02-16T10:58:27;12.07;;;9.73;;
20988;SDS011;10653;47.052;15.410;2024-02-16T11:00:55;11.00;;;9.80;;
20988;SDS011;10653;47.052;15.410;2024-02-16T11:03:22;13.60;;;9.70;;
20988;SDS011;10653;47.052;15.410;2024-02-16T11:05:49;13.30;;;9.17;;
20988;SDS011;10653;47.052;15.410;2024-02-16T11:08:16;9.90;;;8.90;;
20988;SDS011;10653;47.052;15.410;2024-02-16T11:10:58;11.17;;;9.10;;
20988;SDS011;10653;47.052;15.410;2024-02-16T11:13:24;15.07;;;9.50;;
20988;SDS011;10653;47.052;15.410;2024-02-16T11:15:57;9.50;;;8.10;;
20988;SDS011;10653;47.052;15.410;2024-02-16T11:18:24;10.70;;;9.50;;
20988;SDS011;10653;47.052;15.410;2024-02-16T11:20:51;12.10;;;8.70;;
20988;SDS011;10653;47.052;15.410;2024-02-16T11:23:19;11.37;;;9.50;;
20988;SDS011;10653;47.052;15.410;2024-02-16T11:25:50;11.30;;;10.20;;
20988;SDS011;10653;47.052;15.410;2024-02-16T11:28:16;12.53;;;9.30;;
20988;SDS011;10653;47.052;15.410;2024-02-16T11:30:43;10.87;;;9.77;;
20988;SDS011;10653;47.052;15.410;2024-02-16T11:33:12;10.97;;;10.00;;
20988;SDS011;10653;47.052;15.410;2024-02-16T11:35:38;12.57;;;9.50;;
20988;SDS011;10653;47.052;15.410;2024-02-16T11:38:04;11.30;;;10.10;;
20988;SDS011;10653;47.052;15.410;2024-02-16T11:40:30;10.90;;;9.87;;
20988;SDS011;10653;47.052;15.410;2024-02-16T11:43:00;11.83;;;10.60;;
20988;SDS011;10653;47.052;15.410;2024-02-16T11:45:26;14.30;;;11.83;;
20988;SDS011;10653;47.052;15.410;2024-02-16T11:48:03;12.33;;;11.23;;
20988;SDS011;10653;47.052;15.410;2024-02-16T11:50:29;12.40;;;11.30;;
20988;SDS011;10653;47.052;15.410;2024-02-16T11:52:55;14.30;;;12.37;;
20988;SDS011;10653;47.052;15.410;2024-02-16T11:55:21;12.33;;;11.33;;
20988;SDS011;10653;47.052;15.410;2024-02-16T11:57:47;12.37;;;11.30;;
20988;SDS011;10653;47.052;15.410;2024-02-16T12:00:15;12.10;;;10.97;;
20988;SDS011;10653;47.052;15.410;2024-02-16T12:02:42;12.00;;;10.90;;
20988;SDS011;10653;47.052;15.410;2024-02-16T12:05:08;13.00;;;11.90;;
20988;SDS011;10653;47.052;15.410;2024-02-16T12:07:36;11.90;;;10.70;;
20988;SDS011;10653;47.052;15.410;2024-02-16T12:10:05;11.57;;;10.47;;
20988;SDS011;10653;47.052;15.410;2024-02-16T12:12:32;11.97;;;10.77;;
20988;SDS011;10653;47.052;15.410;2024-02-16T12:14:59;12.70;;;11.40;;
20988;SDS011;10653;47.052;15.410;2024-02-16T12:17:25;12.07;;;10.83;;
20988;SDS011;10653;47.052;15.410;2024-02-16T12:19:51;12.80;;;11.70;;
20988;SDS011;10653;47.052;15.410;2024-02-16T12:22:18;13.30;;;11.80;;
20988;SDS011;10653;47.052;15.410;2024-02-16T12:24:49;12.10;;;10.90;;
20988;SDS011;10653;47.052;15.410;2024-02-16T12:27:16;11.93;;;10.90;;
20988;SDS011;10653;47.052;15.410;2024-02-16T12:29:42;13.27;;;11.73;;
20988;SDS011;10653;47.052;15.410;2024-02-16T12:32:08;11.73;;;10.60;;
20988;SDS011;10653;47.052;15.410;2024-02-16T12:34:37;11.50;;;10.23;;
20988;SDS011;10653;47.052;15.410;2024-02-16T12:37:06;10.30;;;9.40;;
20988;SDS011;10653;47.052;15.410;2024-02-16T12:39:35;9.90;;;9.07;;
20988;SDS011;10653;47.052;15.410;2024-02-16T12:42:01;9.60;;;8.70;;
20988;SDS011;10653;47.052;15.410;2024-02-16T12:44:28;9.70;;;8.67;;
20988;SDS011;10653;47.052;15.410;2024-02-16T12:46:55;9.80;;;8.67;;
20988;SDS011;10653;47.052;15.410;2024-02-16T12:49:21;9.40;;;8.50;;
20988;SDS011;10653;47.052;15.410;2024-02-16T12:51:50;9.00;;;8.20;;
20988;SDS011;10653;47.052;15.410;2024-02-16T12:54:17;8.40;;;7.67;;
20988;SDS011;10653;47.052;15.410;2024-02-16T12:56:47;9.97;;;9.00;;
20988;SDS011;10653;47.052;15.410;2024-02-16T12:59:14;10.00;;;9.03;;
20988;SDS011;10653;47.052;15.410;2024-02-16T13:01:40;11.97;;;10.87;;
20988;SDS011;10653;47.052;15.410;2024-02-16T13:04:07;10.30;;;9.20;;
20988;SDS011;10653;47.052;15.410;2024-02-16T13:06:33;8.87;;;8.17;;
20988;SDS011;10653;47.052;15.410;2024-02-16T13:08:59;10.40;;;9.40;;
20988;SDS011;10653;47.052;15.410;2024-02-16T13:11:27;10.67;;;9.03;;
20988;SDS011;10653;47.052;15.410;2024-02-16T13:13:54;8.77;;;7.97;;
20988;SDS011;10653;47.052;15.410;2024-02-16T13:16:20;10.60;;;9.07;;
20988;SDS011;10653;47.052;15.410;2024-02-16T13:18:46;10.50;;;8.70;;
20988;SDS011;10653;47.052;15.410;2024-02-16T13:21:12;10.00;;;8.20;;
20988;SDS011;10653;47.052;15.410;2024-02-16T13:23:39;8.93;;;8.13;;
20988;SDS011;10653;47.052;15.410;2024-02-16T13:26:05;9.37;;;8.57;;
20988;SDS011;10653;47.052;15.410;2024-02-16T13:28:31;9.90;;;9.00;;
20988;SDS011;10653;47.052;15.410;2024-02-16T13:30:58;9.87;;;8.90;;
20988;SDS011;10653;47.052;15.410;2024-02-16T13:33:24;10.33;;;9.43;;
20988;SDS011;10653;47.052;15.410;2024-02-16T13:35:50;10.23;;;9.23;;
20988;SDS011;10653;47.052;15.410;2024-02-16T13:38:16;11.43;;;10.40;;
20988;SDS011;10653;47.052;15.410;2024-02-16T13:40:42;11.50;;;10.30;;
20988;SDS011;10653;47.052;15.410;2024-02-16T13:43:08;11.20;;;10.20;;
20988;SDS011;10653;47.052;15.410;2024-02-16T13:45:47;12.90;;;11.27;;
20988;SDS011;10653;47.052;15.410;2024-02-16T13:48:15;11.30;;;10.27;;
20988;SDS011;10653;47.052;15.410;2024-02-16T13:50:43;11.90;;;10.50;;
20988;SDS011;10653;47.052;15.410;2024-02-16T13:53:09;10.90;;;9.80;;
20988;SDS011;10653;47.052;15.410;2024-02-16T13:55:35;11.50;;;10.50;;
20988;SDS011;10653;47.052;15.410;2024-02-16T13:58:01;11.23;;;10.13;;
20988;SDS011;10653;47.052;15.410;2024-02-16T14:00:27;10.97;;;9.90;;
20988;SDS011;10653;47.052;15.410;2024-02-16T14:02:53;11.07;;;9.97;;
20988;SDS011;10653;47.052;15.410;2024-02-16T14:05:19;10.37;;;9.37;;
20988;SDS011;10653;47.052;15.410;2024-02-16T14:07:45;12.00;;;10.67;;
20988;SDS011;10653;47.052;15.410;2024-02-16T14:10:12;11.00;;;9.87;;
20988;SDS011;10653;47.052;15.410;2024-02-16T14:12:38;11.37;;;10.20;;
20988;SDS011;10653;47.052;15.410;2024-02-16T14:15:04;10.73;;;9.70;;
20988;SDS011;10653;47.052;15.410;2024-02-16T14:17:30;9.83;;;8.93;;
20988;SDS011;10653;47.052;15.410;2024-02-16T14:19:57;10.03;;;9.13;;